createdAt,value
2023-05-23T00:01:02.222Z,100764.25
2023-05-23T00:03:28.941Z,100768.63
2023-05-23T00:05:56.556Z,100763.44
2023-05-23T00:08:23.257Z,100756.19
2023-05-23T00:10:49.791Z,100752.56
2023-05-23T00:13:16.339Z,100745.41
2023-05-23T00:15:43.018Z,100744.97
2023-05-23T00:18:11.174Z,100747.38
2023-05-23T00:20:40.838Z,100752.78
2023-05-23T00:23:09.349Z,100752.16
2023-05-23T00:25:36.561Z,100741.66
2023-05-23T00:28:04.785Z,100743.72
2023-05-23T00:30:32.250Z,100741.88
2023-05-23T00:32:59.048Z,100749.91
2023-05-23T00:35:26.024Z,100745.19
2023-05-23T00:37:52.666Z,100742.34
2023-05-23T00:40:19.189Z,100746.97
2023-05-23T00:42:46.233Z,100744.47
2023-05-23T00:45:12.908Z,100746.50
2023-05-23T00:47:42.995Z,100740.38
2023-05-23T00:50:12.653Z,100737.41
2023-05-23T00:52:39.470Z,100736.94
2023-05-23T00:55:06.452Z,100732.59
2023-05-23T00:57:34.868Z,100735.13
2023-05-23T01:00:02.054Z,100734.41
2023-05-23T01:02:30.112Z,100738.38
2023-05-23T01:04:56.799Z,100741.75
2023-05-23T01:07:23.400Z,100750.16
2023-05-23T01:09:50.106Z,100742.38
2023-05-23T01:12:31.026Z,100741.91
2023-05-23T01:15:08.630Z,100734.00
2023-05-23T01:17:44.959Z,100728.72
2023-05-23T01:20:12.856Z,100723.53
2023-05-23T01:23:02.670Z,100722.63
2023-05-23T01:26:02.518Z,100715.91
2023-05-23T01:28:35.585Z,100728.19
2023-05-23T01:31:04.072Z,100719.16
2023-05-23T01:33:32.337Z,100720.34
2023-05-23T01:36:02.348Z,100724.81
2023-05-23T01:38:28.857Z,100718.59
2023-05-23T01:40:55.425Z,100718.19
2023-05-23T01:43:22.869Z,100713.44
2023-05-23T01:45:56.319Z,100715.84
2023-05-23T01:48:23.993Z,100714.78
2023-05-23T01:50:50.781Z,100721.13
2023-05-23T01:53:21.377Z,100725.00
2023-05-23T01:55:48.220Z,100738.38
2023-05-23T01:58:14.835Z,100742.19
2023-05-23T02:00:41.525Z,100730.59
2023-05-23T02:03:08.891Z,100718.38
2023-05-23T02:05:35.764Z,100726.06
2023-05-23T02:08:02.423Z,100730.94
2023-05-23T02:10:29.058Z,100732.63
2023-05-23T02:12:55.645Z,100725.00
2023-05-23T02:15:22.206Z,100706.22
2023-05-23T02:17:48.879Z,100703.91
2023-05-23T02:20:15.726Z,100710.91
2023-05-23T02:22:42.261Z,100717.88
2023-05-23T02:25:08.860Z,100716.03
2023-05-23T02:27:35.443Z,100719.88
2023-05-23T02:30:02.002Z,100707.03
2023-05-23T02:32:30.180Z,100700.72
2023-05-23T02:34:57.571Z,100703.53
2023-05-23T02:37:24.306Z,100694.88
2023-05-23T02:39:50.859Z,100701.44
2023-05-23T02:42:17.409Z,100706.94
2023-05-23T02:44:44.867Z,100696.53
2023-05-23T02:47:11.443Z,100700.91
2023-05-23T02:49:37.957Z,100698.91
2023-05-23T02:52:05.792Z,100704.97
2023-05-23T02:54:32.584Z,100700.78
2023-05-23T02:56:59.430Z,100696.16
2023-05-23T02:59:26.761Z,100693.88
2023-05-23T03:01:53.508Z,100700.09
2023-05-23T03:04:20.065Z,100700.66
2023-05-23T03:06:47.687Z,100694.16
2023-05-23T03:09:15.506Z,100694.16
2023-05-23T03:11:42.125Z,100699.53
2023-05-23T03:14:08.746Z,100696.56
2023-05-23T03:16:35.394Z,100683.56
2023-05-23T03:19:02.138Z,100684.28
2023-05-23T03:21:29.560Z,100686.94
2023-05-23T03:23:56.266Z,100690.56
2023-05-23T03:26:23.044Z,100674.59
2023-05-23T03:28:51.312Z,100673.88
2023-05-23T03:31:19.388Z,100681.72
2023-05-23T03:33:46.132Z,100678.97
2023-05-23T03:36:12.768Z,100677.25
2023-05-23T03:38:39.401Z,100685.25
2023-05-23T03:41:06.198Z,100678.56
2023-05-23T03:43:32.829Z,100685.19
2023-05-23T03:45:59.723Z,100680.16
2023-05-23T03:48:26.426Z,100695.53
2023-05-23T03:50:53.501Z,100683.41
2023-05-23T03:53:20.123Z,100682.41
2023-05-23T03:55:46.907Z,100684.56
2023-05-23T03:58:13.528Z,100686.28
2023-05-23T04:00:42.824Z,100684.28
2023-05-23T04:03:11.789Z,100684.00
2023-05-23T04:05:40.214Z,100678.03
2023-05-23T04:08:07.168Z,100677.06
2023-05-23T04:10:34.106Z,100679.63
2023-05-23T04:13:00.821Z,100691.41
2023-05-23T04:15:28.161Z,100689.72
2023-05-23T04:17:58.128Z,100687.22
2023-05-23T04:20:26.255Z,100689.41
2023-05-23T04:22:52.954Z,100688.50
2023-05-23T04:25:20.304Z,100691.63
2023-05-23T04:28:11.689Z,100692.47
2023-05-23T04:30:38.735Z,100693.31
2023-05-23T04:33:06.339Z,100695.31
2023-05-23T04:35:34.324Z,100695.03
2023-05-23T04:38:01.920Z,100690.44
2023-05-23T04:40:29.558Z,100696.78
2023-05-23T04:43:02.044Z,100698.72
2023-05-23T04:45:44.108Z,100694.88
2023-05-23T04:48:24.909Z,100704.81
2023-05-23T04:50:52.657Z,100704.75
2023-05-23T04:53:19.682Z,100707.16
2023-05-23T04:55:47.326Z,100709.69
2023-05-23T04:58:16.887Z,100700.50
2023-05-23T05:00:44.149Z,100694.81
2023-05-23T05:03:12.552Z,100697.25
2023-05-23T05:05:43.134Z,100692.47
2023-05-23T05:08:09.688Z,100702.94
2023-05-23T05:10:36.245Z,100701.88
2023-05-23T05:13:03.180Z,100701.53
2023-05-23T05:15:37.171Z,100701.09
2023-05-23T05:18:03.852Z,100699.19
2023-05-23T05:20:30.480Z,100705.41
2023-05-23T05:22:58.244Z,100700.53
2023-05-23T05:25:24.933Z,100703.16
2023-05-23T05:27:52.706Z,100700.75
2023-05-23T05:30:20.657Z,100701.88
2023-05-23T05:32:52.068Z,100692.06
2023-05-23T05:35:18.653Z,100695.72
2023-05-23T05:37:46.437Z,100692.63
2023-05-23T05:40:13.336Z,100696.44
2023-05-23T05:42:42.300Z,100694.81
2023-05-23T05:45:11.503Z,100693.81
2023-05-23T05:47:39.494Z,100695.38
2023-05-23T05:50:07.873Z,100692.25
2023-05-23T05:52:38.448Z,100689.16
2023-05-23T05:55:13.384Z,100688.53
2023-05-23T05:57:44.747Z,100690.88
2023-05-23T06:00:19.188Z,100689.59
2023-05-23T06:02:51.526Z,100686.66
2023-05-23T06:05:29.017Z,100691.78
2023-05-23T06:07:55.828Z,100689.16
2023-05-23T06:10:22.404Z,100693.31
2023-05-23T06:12:50.287Z,100694.38
2023-05-23T06:15:17.469Z,100704.13
2023-05-23T06:17:45.101Z,100703.63
2023-05-23T06:20:12.344Z,100707.34
2023-05-23T06:22:42.504Z,100706.19
2023-05-23T06:25:09.241Z,100710.44
2023-05-23T06:27:35.821Z,100708.72
2023-05-23T06:30:03.445Z,100698.53
2023-05-23T06:32:30.017Z,100699.59
2023-05-23T06:34:57.832Z,100707.03
2023-05-23T06:37:24.979Z,100714.81
2023-05-23T06:39:51.486Z,100713.25
2023-05-23T06:42:18.015Z,100710.50
2023-05-23T06:45:01.214Z,100712.50
2023-05-23T06:47:27.805Z,100710.84
2023-05-23T06:49:54.351Z,100705.00
2023-05-23T06:52:20.913Z,100708.44
2023-05-23T06:54:47.584Z,100702.16
2023-05-23T06:57:14.392Z,100708.81
2023-05-23T06:59:40.944Z,100711.09
2023-05-23T07:02:07.510Z,100710.34
2023-05-23T07:04:34.740Z,100714.81
2023-05-23T07:07:06.668Z,100721.81
2023-05-23T07:09:33.526Z,100721.38
2023-05-23T07:12:08.394Z,100711.28
2023-05-23T07:14:38.315Z,100712.56
2023-05-23T07:17:05.824Z,100718.19
2023-05-23T07:19:33.513Z,100720.88
2023-05-23T07:22:00.551Z,100718.72
2023-05-23T07:24:27.389Z,100713.44
2023-05-23T07:26:56.349Z,100712.00
2023-05-23T07:29:23.341Z,100723.13
2023-05-23T07:31:53.520Z,100711.91
2023-05-23T07:34:21.992Z,100713.44
2023-05-23T07:36:55.457Z,100721.91
2023-05-23T07:39:24.415Z,100713.94
2023-05-23T07:41:52.028Z,100711.91
2023-05-23T07:44:21.572Z,100718.91
2023-05-23T07:46:50.584Z,100714.81
2023-05-23T07:49:17.278Z,100722.31
2023-05-23T07:51:45.597Z,100716.31
2023-05-23T07:54:18.329Z,100709.78
2023-05-23T07:56:45.231Z,100710.09
2023-05-23T07:59:13.478Z,100712.16
2023-05-23T08:01:42.301Z,100713.50
2023-05-23T08:04:12.651Z,100708.94
2023-05-23T08:07:00.804Z,100703.41
2023-05-23T08:09:41.088Z,100722.84
2023-05-23T08:12:09.740Z,100722.19
2023-05-23T08:14:49.744Z,100731.25
2023-05-23T08:17:23.721Z,100729.38
2023-05-23T08:19:51.652Z,100733.59
2023-05-23T08:22:18.232Z,100735.38
2023-05-23T08:24:44.755Z,100744.34
2023-05-23T08:27:11.328Z,100742.81
2023-05-23T08:29:38.463Z,100746.31
2023-05-23T08:32:05.325Z,100747.88
2023-05-23T08:34:32.988Z,100748.31
2023-05-23T08:36:59.528Z,100745.66
2023-05-23T08:39:26.323Z,100755.06
2023-05-23T08:42:13.426Z,100753.16
2023-05-23T08:44:40.716Z,100760.44
2023-05-23T08:47:08.526Z,100756.72
2023-05-23T08:49:47.836Z,100754.19
2023-05-23T08:52:18.295Z,100757.28
2023-05-23T08:54:48.171Z,100762.94
2023-05-23T08:57:14.726Z,100765.44
2023-05-23T08:59:46.978Z,100763.00
2023-05-23T09:02:14.242Z,100763.78
2023-05-23T09:04:41.299Z,100772.78
2023-05-23T09:07:16.842Z,100771.13
2023-05-23T09:09:44.476Z,100770.91
2023-05-23T09:12:13.645Z,100777.56
2023-05-23T09:14:41.143Z,100776.75
2023-05-23T09:17:08.884Z,100780.75
2023-05-23T09:19:41.011Z,100783.09
2023-05-23T09:22:28.390Z,100779.28
2023-05-23T09:25:09.306Z,100782.50
2023-05-23T09:27:38.591Z,100784.06
2023-05-23T09:30:09.493Z,100790.47
2023-05-23T09:32:36.179Z,100791.81
2023-05-23T09:35:08.435Z,100779.06
2023-05-23T09:37:40.846Z,100777.97
2023-05-23T09:40:13.210Z,100789.56
2023-05-23T09:42:45.001Z,100782.66
2023-05-23T09:45:12.553Z,100786.31
2023-05-23T09:47:39.188Z,100788.34
2023-05-23T09:50:06.398Z,100792.84
2023-05-23T09:52:39.100Z,100793.91
2023-05-23T09:55:06.803Z,100791.06
2023-05-23T09:57:40.857Z,100798.75
2023-05-23T10:00:14.199Z,100800.97
2023-05-23T10:03:13.520Z,100806.56
2023-05-23T10:05:48.261Z,100809.84
2023-05-23T10:08:32.632Z,100797.59
2023-05-23T10:11:14.404Z,100809.22
2023-05-23T10:13:45.227Z,100810.78
2023-05-23T10:16:26.854Z,100805.34
2023-05-23T10:18:56.639Z,100812.16
2023-05-23T10:21:46.727Z,100812.81
2023-05-23T10:24:13.809Z,100819.09
2023-05-23T10:26:40.648Z,100818.69
2023-05-23T10:29:07.692Z,100813.94
2023-05-23T10:31:35.094Z,100820.91
2023-05-23T10:34:27.150Z,100826.03
2023-05-23T10:36:59.758Z,100822.41
2023-05-23T10:39:51.304Z,100823.22
2023-05-23T10:42:47.676Z,100813.22
2023-05-23T10:45:15.937Z,100822.69
2023-05-23T10:47:42.544Z,100826.66
2023-05-23T10:50:13.939Z,100828.72
2023-05-23T10:52:41.431Z,100826.59
2023-05-23T10:55:15.708Z,100830.81
2023-05-23T10:57:43.898Z,100826.94
2023-05-23T11:00:24.664Z,100829.59
2023-05-23T11:02:57.768Z,100831.91
2023-05-23T11:05:28.001Z,100831.91
2023-05-23T11:08:35.430Z,100825.22
2023-05-23T11:11:10.380Z,100827.28
2023-05-23T11:13:56.806Z,100826.34
2023-05-23T11:16:27.718Z,100829.72
2023-05-23T11:19:14.272Z,100829.97
2023-05-23T11:21:40.799Z,100835.97
2023-05-23T11:24:09.532Z,100828.66
2023-05-23T11:26:36.335Z,100834.13
2023-05-23T11:29:05.759Z,100830.44
2023-05-23T11:31:38.162Z,100827.56
2023-05-23T11:34:05.398Z,100836.22
2023-05-23T11:36:33.162Z,100834.72
2023-05-23T11:39:03.587Z,100832.63
2023-05-23T11:41:35.769Z,100839.88
2023-05-23T11:44:02.544Z,100847.88
2023-05-23T11:46:29.220Z,100847.56
2023-05-23T11:48:56.369Z,100844.50
2023-05-23T11:51:22.909Z,100847.00
2023-05-23T11:53:49.468Z,100844.56
2023-05-23T11:56:16.777Z,100850.47
2023-05-23T11:58:45.174Z,100847.22
2023-05-23T12:01:12.749Z,100850.69
2023-05-23T12:03:51.703Z,100849.78
2023-05-23T12:06:23.594Z,100857.00
2023-05-23T12:08:50.691Z,100863.44
2023-05-23T12:11:18.225Z,100865.31
2023-05-23T12:13:45.348Z,100861.38
2023-05-23T12:16:13.855Z,100862.81
2023-05-23T12:18:40.515Z,100862.44
2023-05-23T12:21:08.515Z,100861.28
2023-05-23T12:23:35.976Z,100854.00
2023-05-23T12:26:07.035Z,100860.41
2023-05-23T12:28:45.672Z,100854.94
2023-05-23T12:31:13.371Z,100868.50
2023-05-23T12:33:41.324Z,100864.28
2023-05-23T12:36:07.929Z,100862.59
2023-05-23T12:38:38.197Z,100867.00
2023-05-23T12:41:09.457Z,100872.31
2023-05-23T12:43:41.884Z,100856.69
2023-05-23T12:46:08.454Z,100865.97
2023-05-23T12:48:35.768Z,100859.19
2023-05-23T12:51:03.366Z,100871.91
2023-05-23T12:53:29.941Z,100872.97
2023-05-23T12:55:56.471Z,100870.06
2023-05-23T12:58:23.614Z,100878.53
2023-05-23T13:00:50.585Z,100874.47
2023-05-23T13:03:18.266Z,100880.09
2023-05-23T13:05:44.877Z,100885.53
2023-05-23T13:08:12.375Z,100886.47
2023-05-23T13:10:39.317Z,100885.34
2023-05-23T13:13:05.917Z,100883.66
2023-05-23T13:15:32.579Z,100881.56
2023-05-23T13:17:59.180Z,100888.28
2023-05-23T13:20:30.149Z,100892.44
2023-05-23T13:22:57.196Z,100888.53
2023-05-23T13:25:24.504Z,100894.50
2023-05-23T13:27:51.081Z,100893.84
2023-05-23T13:30:17.714Z,100886.56
2023-05-23T13:32:44.293Z,100892.34
2023-05-23T13:35:11.164Z,100893.03
2023-05-23T13:37:37.840Z,100890.94
2023-05-23T13:40:04.993Z,100895.69
2023-05-23T13:42:31.512Z,100901.69
2023-05-23T13:44:58.052Z,100903.03
2023-05-23T13:47:24.533Z,100897.38
2023-05-23T13:49:51.108Z,100904.66
2023-05-23T13:52:17.592Z,100905.09
2023-05-23T13:54:44.120Z,100901.34
2023-05-23T13:57:10.527Z,100899.28
2023-05-23T13:59:37.009Z,100904.59
2023-05-23T14:02:03.568Z,100906.88
2023-05-23T14:04:30.037Z,100904.97
2023-05-23T14:06:56.439Z,100910.31
2023-05-23T14:09:23.553Z,100912.03
2023-05-23T14:11:52.129Z,100913.78
2023-05-23T14:14:18.672Z,100907.63
2023-05-23T14:16:45.176Z,100917.81
2023-05-23T14:19:11.667Z,100920.94
2023-05-23T14:21:38.968Z,100914.59
2023-05-23T14:24:06.008Z,100921.44
2023-05-23T14:26:32.459Z,100935.06
2023-05-23T14:28:58.882Z,100923.34
2023-05-23T14:31:25.375Z,100931.13
2023-05-23T14:33:51.862Z,100923.97
2023-05-23T14:36:18.653Z,100920.38
2023-05-23T14:38:48.036Z,100924.06
2023-05-23T14:41:14.603Z,100926.69
2023-05-23T14:43:41.095Z,100940.41
2023-05-23T14:46:07.737Z,100934.41
2023-05-23T14:48:34.423Z,100953.47
2023-05-23T14:51:01.859Z,100958.53
2023-05-23T14:53:28.758Z,100956.06
2023-05-23T14:55:55.645Z,100965.59
2023-05-23T14:58:23.020Z,100975.13
2023-05-23T15:00:49.466Z,100995.56
2023-05-23T15:03:16.003Z,100992.72
2023-05-23T15:05:43.931Z,100998.09
2023-05-23T15:08:12.006Z,100998.72
2023-05-23T15:10:38.468Z,101000.41
2023-05-23T15:13:04.956Z,101008.09
2023-05-23T15:15:37.392Z,101005.78
2023-05-23T15:18:06.908Z,101018.69
2023-05-23T15:20:34.101Z,101015.50
2023-05-23T15:23:00.523Z,101023.56
2023-05-23T15:25:43.340Z,101023.09
2023-05-23T15:28:14.289Z,101020.13
2023-05-23T15:30:41.140Z,101029.84
2023-05-23T15:33:07.766Z,101038.91
2023-05-23T15:35:34.258Z,101031.09
2023-05-23T15:38:00.870Z,101044.41
2023-05-23T15:40:27.628Z,101040.22
2023-05-23T15:42:54.084Z,101040.53
2023-05-23T15:45:20.779Z,101044.56
2023-05-23T15:47:47.203Z,101037.41
2023-05-23T15:50:14.415Z,101044.47
2023-05-23T15:52:40.995Z,101042.78
2023-05-23T15:55:07.845Z,101048.63
2023-05-23T15:57:34.363Z,101039.97
2023-05-23T16:00:01.014Z,101050.22
2023-05-23T16:02:27.814Z,101051.78
2023-05-23T16:04:54.360Z,101052.59
2023-05-23T16:07:20.797Z,101050.22
2023-05-23T16:09:47.218Z,101048.34
2023-05-23T16:12:13.708Z,101055.75
2023-05-23T16:14:40.145Z,101053.06
2023-05-23T16:17:07.652Z,101059.38
2023-05-23T16:19:35.267Z,101057.81
2023-05-23T16:22:01.908Z,101055.78
2023-05-23T16:24:28.450Z,101053.75
2023-05-23T16:26:54.874Z,101059.75
2023-05-23T16:29:21.385Z,101067.53
2023-05-23T16:31:47.929Z,101061.75
2023-05-23T16:34:14.699Z,101068.78
2023-05-23T16:36:41.533Z,101075.81
2023-05-23T16:39:08.065Z,101068.44
2023-05-23T16:41:34.549Z,101072.78
2023-05-23T16:44:01.141Z,101086.09
2023-05-23T16:48:54.189Z,101084.53
2023-05-23T16:51:20.676Z,101092.75
2023-05-23T16:53:47.321Z,101097.84
2023-05-23T16:56:13.809Z,101094.69
2023-05-23T16:58:40.294Z,101100.94
2023-05-23T17:01:07.560Z,101100.56
2023-05-23T17:03:34.359Z,101109.56
2023-05-23T17:06:01.408Z,101110.34
2023-05-23T17:08:27.819Z,101115.81
2023-05-23T17:10:54.276Z,101107.97
2023-05-23T17:13:20.728Z,101118.13
2023-05-23T17:15:47.195Z,101120.09
2023-05-23T17:18:13.731Z,101123.25
2023-05-23T17:20:40.492Z,101118.81
2023-05-23T17:23:07.097Z,101129.44
2023-05-23T17:25:33.520Z,101132.22
2023-05-23T17:27:59.952Z,101132.19
2023-05-23T17:30:26.458Z,101140.84
2023-05-23T17:32:52.928Z,101144.75
2023-05-23T17:35:19.409Z,101144.75
2023-05-23T17:37:45.906Z,101144.75
2023-05-23T17:40:13.147Z,101155.28
2023-05-23T17:42:40.725Z,101148.63
2023-05-23T17:45:09.335Z,101150.16
2023-05-23T17:47:36.003Z,101156.81
2023-05-23T17:50:06.329Z,101155.72
2023-05-23T17:52:32.951Z,101154.91
2023-05-23T17:54:59.416Z,101150.97
2023-05-23T17:57:26.312Z,101147.06
2023-05-23T17:59:52.751Z,101151.00
2023-05-23T18:02:19.274Z,101143.97
2023-05-23T18:04:45.726Z,101151.81
2023-05-23T18:07:12.816Z,101153.00
2023-05-23T18:09:39.411Z,101155.78
2023-05-23T18:12:06.166Z,101162.38
2023-05-23T18:14:32.666Z,101167.13
2023-05-23T18:16:59.153Z,101165.16
2023-05-23T18:19:25.712Z,101170.66
2023-05-23T18:21:52.243Z,101168.28
2023-05-23T18:24:18.659Z,101175.31
2023-05-23T18:26:45.083Z,101170.16
2023-05-23T18:29:11.660Z,101179.63
2023-05-23T18:31:38.166Z,101176.09
2023-05-23T18:34:04.846Z,101180.06
2023-05-23T18:36:32.668Z,101189.41
2023-05-23T18:38:59.185Z,101191.78
2023-05-23T18:41:27.937Z,101194.50
2023-05-23T18:43:55.274Z,101197.25
2023-05-23T18:46:24.022Z,101202.25
2023-05-23T18:48:50.995Z,101198.00
2023-05-23T18:51:17.860Z,101209.69
2023-05-23T18:53:44.275Z,101211.31
2023-05-23T18:56:10.868Z,101219.91
2023-05-23T18:58:37.266Z,101227.78
2023-05-23T19:01:03.994Z,101224.28
2023-05-23T19:03:32.020Z,101233.25
2023-05-23T19:06:02.127Z,101236.41
2023-05-23T19:08:32.034Z,101233.22
2023-05-23T19:10:59.412Z,101234.03
2023-05-23T19:13:26.590Z,101238.69
2023-05-23T19:15:53.376Z,101247.72
2023-05-23T19:18:20.227Z,101249.59
2023-05-23T19:20:47.834Z,101251.59
2023-05-23T19:23:14.368Z,101253.16
2023-05-23T19:25:42.474Z,101255.41
2023-05-23T19:28:09.032Z,101260.50
2023-05-23T19:30:36.006Z,101261.66
2023-05-23T19:33:02.557Z,101265.44
2023-05-23T19:35:29.239Z,101267.00
2023-05-23T19:37:56.582Z,101264.59
2023-05-23T19:40:24.092Z,101266.47
2023-05-23T19:42:50.635Z,101277.81
2023-05-23T19:45:18.450Z,101277.41
2023-05-23T19:47:45.133Z,101288.69
2023-05-23T19:50:14.622Z,101284.44
2023-05-23T19:52:41.982Z,101289.97
2023-05-23T19:55:09.091Z,101297.34
2023-05-23T19:57:36.300Z,101296.97
2023-05-23T20:00:03.563Z,101303.22
2023-05-23T20:02:30.936Z,101302.25
2023-05-23T20:04:57.346Z,101297.59
2023-05-23T20:07:23.954Z,101307.28
2023-05-23T20:09:50.351Z,101312.63
2023-05-23T20:12:16.856Z,101314.19
2023-05-23T20:14:43.260Z,101323.81
2023-05-23T20:17:09.690Z,101317.31
2023-05-23T20:19:36.091Z,101329.41
2023-05-23T20:22:02.522Z,101329.81
2023-05-23T20:24:31.713Z,101328.66
2023-05-23T20:26:58.412Z,101331.53
2023-05-23T20:29:24.853Z,101339.75
2023-05-23T20:31:51.604Z,101346.13
2023-05-23T20:34:18.135Z,101341.38
2023-05-23T20:36:44.803Z,101340.28
2023-05-23T20:39:11.659Z,101343.47
2023-05-23T20:41:42.168Z,101355.91
2023-05-23T20:44:12.456Z,101350.50
2023-05-23T20:46:40.273Z,101354.28
2023-05-23T20:49:07.350Z,101355.06
2023-05-23T20:51:35.337Z,101352.56
2023-05-23T20:54:03.218Z,101355.97
2023-05-23T20:56:30.934Z,101362.16
2023-05-23T20:59:00.197Z,101356.94
2023-05-23T21:01:27.491Z,101361.00
2023-05-23T21:03:54.741Z,101363.91
2023-05-23T21:06:21.274Z,101372.00
2023-05-23T21:08:47.730Z,101364.75
2023-05-23T21:11:14.142Z,101377.88
2023-05-23T21:13:40.797Z,101373.63
2023-05-23T21:16:08.674Z,101376.56
2023-05-23T21:18:35.191Z,101378.19
2023-05-23T21:21:01.621Z,101379.41
2023-05-23T21:23:28.059Z,101383.34
2023-05-23T21:25:55.049Z,101382.81
2023-05-23T21:28:21.507Z,101383.47
2023-05-23T21:30:48.248Z,101380.53
2023-05-23T21:33:14.769Z,101375.44
2023-05-23T21:35:41.627Z,101389.34
2023-05-23T21:38:08.220Z,101395.81
2023-05-23T21:40:34.605Z,101389.78
2023-05-23T21:43:01.040Z,101395.66
2023-05-23T21:45:27.453Z,101388.69
2023-05-23T21:47:53.956Z,101390.75
2023-05-23T21:50:20.387Z,101394.34
2023-05-23T21:52:46.819Z,101398.72
2023-05-23T21:55:13.296Z,101396.69
2023-05-23T21:57:39.762Z,101390.19
2023-05-23T22:00:12.161Z,101389.34
2023-05-23T22:02:41.565Z,101392.72
2023-05-23T22:05:08.777Z,101391.16
2023-05-23T22:07:35.275Z,101394.84
2023-05-23T22:10:01.910Z,101400.19
2023-05-23T22:12:28.775Z,101402.28
2023-05-23T22:14:55.636Z,101407.75
2023-05-23T22:17:22.564Z,101399.44
2023-05-23T22:19:51.982Z,101402.16
2023-05-23T22:22:19.125Z,101397.75
2023-05-23T22:24:45.561Z,101402.88
2023-05-23T22:27:12.255Z,101399.09
2023-05-23T22:29:38.698Z,101408.34
2023-05-23T22:32:05.427Z,101403.03
2023-05-23T22:34:31.909Z,101405.25
2023-05-23T22:37:00.273Z,101411.22
2023-05-23T22:39:27.160Z,101409.72
2023-05-23T22:41:53.841Z,101408.72
2023-05-23T22:44:20.481Z,101413.50
2023-05-23T22:46:46.945Z,101407.50
2023-05-23T22:49:13.506Z,101403.56
2023-05-23T22:51:40.063Z,101406.41
2023-05-23T22:54:06.705Z,101401.25
2023-05-23T22:56:33.147Z,101410.16
2023-05-23T22:58:59.617Z,101411.81
2023-05-23T23:01:26.298Z,101408.56
2023-05-23T23:03:52.878Z,101409.44
2023-05-23T23:06:21.018Z,101408.16
2023-05-23T23:08:47.654Z,101408.72
2023-05-23T23:11:14.142Z,101418.41
2023-05-23T23:13:40.568Z,101415.13
2023-05-23T23:16:08.630Z,101417.91
2023-05-23T23:18:35.109Z,101407.84
2023-05-23T23:21:01.640Z,101410.47
2023-05-23T23:23:28.255Z,101407.84
2023-05-23T23:25:54.850Z,101407.53
2023-05-23T23:28:21.268Z,101415.72
2023-05-23T23:30:47.950Z,101418.69
2023-05-23T23:33:14.925Z,101421.94
2023-05-23T23:35:41.910Z,101413.53
2023-05-23T23:38:08.490Z,101414.91
2023-05-23T23:40:34.948Z,101422.22
2023-05-23T23:43:01.570Z,101417.97
2023-05-23T23:45:28.059Z,101429.03
2023-05-23T23:47:54.598Z,101417.28
2023-05-23T23:50:21.382Z,101412.31
2023-05-23T23:52:47.851Z,101419.66
2023-05-23T23:55:14.254Z,101415.66
2023-05-23T23:57:40.666Z,101415.53
